Date,TemperatureHighF,TemperatureAvgF,TemperatureLowF,DewpointHighF,DewpointAvgF,DewpointLowF,HumidityHigh,HumidityAvg,HumidityLow,PressureMaxIn,PressureMinIn,WindSpeedMaxMPH,WindSpeedAvgMPH,GustSpeedMaxMPH,PrecipitationSumIn
2013-1-11,54,49,43,51,44,35,93,83,66,30.57,30.26,5,1,6,0.00
2013-1-12,67,58,52,62,55,50,95,91,50,30.29,30.23,2,0,2,0.00
2013-1-13,74,61,56,65,58,54,96,89,72,30.27,30.18,5,0,5,0.00
2013-1-14,72,60,50,65,55,32,96,85,50,30.29,30.21,32,4,32,0.00
2013-1-15,60,48,45,58,46,43,95,93,91,30.35,30.20,2,1,2,0.00
2013-1-16,51,48,46,50,47,45,95,95,93,30.20,30.09,2,0,2,0.00
2013-1-17,52,47,33,51,45,32,96,95,93,30.21,30.03,7,2,8,0.47
2013-1-18,47,37,29,37,32,26,95,83,57,30.65,30.21,8,2,8,0.04
2013-1-19,53,37,25,38,31,23,93,79,53,30.63,30.27,7,0,7,0.00
2013-1-20,64,47,35,43,36,31,90,69,42,30.27,30.09,7,1,7,0.00
2013-1-21,59,44,30,39,32,25,87,65,40,30.20,29.97,7,0,7,0.00
2013-1-22,42,34,24,25,14,7,65,45,29,30.41,30.06,10,2,10,0.00
2013-1-23,41,29,19,20,16,12,78,60,37,30.51,30.19,6,0,6,0.00
2013-1-24,37,30,21,26,18,10,79,60,44,30.64,30.08,59,4,62,0.00
2013-1-25,30,26,20,26,18,10,85,72,55,30.65,30.23,3,0,4,0.04
2013-1-26,38,31,26,32,27,23,88,85,78,30.52,30.21,4,0,5,0.02
2013-1-27,42,32,26,31,26,23,90,76,50,30.72,30.51,5,1,8,0.00
2013-1-28,52,41,28,45,36,24,90,83,74,30.64,30.34,6,0,6,0.00
2013-1-29,74,58,46,61,52,43,93,81,62,30.34,30.20,7,1,7,0.00
2013-1-30,73,66,56,65,61,53,96,86,75,30.21,29.55,14,3,14,0.00
2013-1-31,69,49,33,64,36,-100,88,64,39,30.15,29.50,16,2,16,0.33
2013-2-1,42,35,26,33,20,10,82,56,34,30.51,30.01,14,2,14,0.00
2013-2-2,44,33,20,34,19,10,80,58,37,30.53,30.15,8,1,8,0.02
2013-2-3,51,43,32,39,32,-100,86,69,48,30.15,29.97,7,-2,7,0.00
2013-2-4,51,38,26,30,27,22,85,66,43,30.27,30.10,5,0,5,0.00
2013-2-5,61,45,36,40,34,28,82,68,43,30.14,30.00,7,0,7,0.00
2013-2-6,64,45,31,41,32,27,88,64,32,30.40,30.09,32,2,32,0.00
2013-2-7,52,44,36,42,39,32,93,81,68,30.45,30.09,12,4,12,0.22
2013-2-8,56,46,42,48,42,-100,94,86,70,30.09,29.87,14,1,14,0.45
2013-2-9,48,47,47,38,37,37,69,68,68,30.18,30.08,15,11,16,0.00
2013-2-10,50,48,46,39,38,36,68,68,66,30.43,30.18,32,19,32,0.00
2013-2-11,62,54,44,60,51,36,94,88,68,30.37,30.03,1,0,1,0.00
2013-2-12,64,34,47,54,-8,-100,92,49,50,30.20,30.04,7,-350,7,0.00
2013-2-13,49,47,45,47,44,41,93,89,76,30.07,29.74,0,0,0,0.00
2013-2-14,53,44,32,42,35,30,93,73,50,30.19,29.92,32,9,32,0.00
2013-2-15,63,44,30,45,35,28,92,75,43,30.21,30.05,0,0,0,0.00
2013-2-16,44,38,32,38,34,30,92,84,73,30.08,29.93,8,3,8,0.12
2013-2-17,38,31,25,30,22,16,92,70,45,30.39,30.02,12,2,12,0.04
2013-2-18,52,34,20,28,23,15,86,66,38,30.54,30.39,5,0,5,0.00
2013-2-19,54,43,32,50,39,25,91,85,74,30.39,29.97,8,1,8,0.08
2013-2-20,54,42,33,37,28,21,92,59,31,30.26,30.07,10,1,10,0.00
2013-2-21,56,41,27,28,24,20,80,54,34,30.39,30.23,7,1,7,0.00
2013-2-22,41,37,32,35,30,-100,91,76,51,30.48,30.26,6,-7,6,0.25
2013-2-23,45,41,37,43,39,35,93,92,91,30.26,29.93,0,0,0,0.51
2013-2-24,59,47,44,49,44,42,95,91,69,30.05,29.89,0,0,0,0.04
2013-2-25,46,38,33,34,27,24,81,65,51,30.35,30.15,2,0,2,0.00
2013-2-26,58,46,36,57,42,28,96,87,70,30.26,29.69,1,0,1,0.00
2013-2-27,63,51,41,49,43,37,95,78,51,29.89,29.74,1,0,1,0.00
2013-2-28,50,42,35,40,35,30,92,75,55,29.96,29.82,1,0,1,0.00
2013-3-1,54,42,31,36,31,27,86,68,49,30.03,29.94,1,0,1,0.00
2013-3-2,53,42,32,34,30,23,83,64,45,30.03,29.92,32,2,32,0.00
2013-3-3,49,37,30,28,21,-100,75,55,42,30.09,29.94,10,-18,10,0.00
2013-3-4,52,37,27,24,19,-100,73,51,31,30.22,30.08,11,-5,11,0.00
2013-3-5,56,43,30,43,34,-100,90,75,47,30.21,29.71,5,0,5,0.20
2013-3-6,45,42,38,43,36,31,93,79,64,30.11,29.59,17,5,17,0.00
2013-3-7,53,43,34,36,32,27,81,65,49,30.33,30.11,11,3,11,0.00
2013-3-8,57,44,33,33,29,25,75,56,38,30.38,30.23,13,4,13,0.00
2013-3-9,64,45,35,35,27,-100,77,55,34,30.44,30.35,8,-26,8,0.00
2013-3-12,75,63,58,65,56,47,94,80,50,30.10,29.85,7,2,8,0.38
2013-3-13,63,50,37,47,33,22,80,55,34,30.22,30.03,8,2,8,0.00
2013-3-14,55,42,30,27,23,19,64,48,33,30.34,30.20,2,1,2,0.00
2013-3-15,66,47,29,38,30,22,78,54,35,30.29,30.02,1,0,1,0.00
2013-3-16,80,60,45,54,45,36,77,59,39,30.02,29.76,2,0,2,0.00
2013-3-17,62,53,42,52,44,37,89,74,59,30.30,29.93,2,1,2,0.00
2013-3-18,46,42,38,43,39,36,93,90,84,30.30,30.02,2,1,2,0.00
2013-3-19,70,53,42,52,39,23,94,66,30,30.13,29.92,12,1,12,0.00
2013-3-20,61,48,35,27,21,14,71,36,24,30.24,29.92,9,2,9,0.00
2013-3-21,52,40,32,31,24,13,78,55,33,30.08,29.83,15,4,15,0.00
2013-3-22,56,39,25,24,19,13,70,47,26,30.20,30.07,9,1,9,0.00
2013-3-23,60,45,33,32,29,24,75,56,31,30.18,30.03,6,1,6,0.00
2013-3-24,42,38,33,38,32,-100,91,83,73,30.06,29.66,12,-7,12,0.12
2013-3-25,51,39,36,42,24,-100,91,70,49,29.91,29.66,11,-69,11,0.00
2013-3-26,56,44,34,36,30,26,77,59,45,30.20,29.91,10,2,10,0.00
2013-3-27,59,44,32,33,28,22,78,54,34,30.33,30.20,14,3,14,0.00
2013-3-28,61,46,32,32,27,24,75,51,31,30.40,30.25,10,3,10,0.00
2013-3-29,65,47,30,35,30,23,81,54,30,30.45,30.30,8,1,8,0.00
2013-3-30,71,52,34,40,35,28,82,57,29,30.36,30.20,6,1,6,0.00
2013-3-31,71,56,47,60,49,-100,90,77,64,30.24,29.93,6,-6,6,0.14
2013-4-1,76,57,54,55,42,-100,93,66,36,30.07,29.92,8,-48,8,0.00
2013-4-2,65,51,39,41,32,29,76,52,30,30.27,30.05,6,1,8,0.00
2013-4-3,65,50,41,34,29,25,75,46,26,30.42,30.25,9,2,9,0.00
2013-4-4,53,44,38,39,33,28,92,68,46,30.49,30.02,11,4,11,0.00
2013-4-5,65,49,39,48,41,-100,92,79,54,30.13,29.95,10,-2,10,0.00
2013-4-6,67,52,38,40,36,32,90,57,32,30.42,30.13,11,3,11,0.00
2013-4-7,77,55,34,48,40,29,85,61,36,30.42,30.24,8,1,8,0.00
2013-4-8,84,66,50,61,53,46,87,65,41,30.30,30.17,8,1,8,0.00
2013-4-9,89,68,55,65,57,50,88,67,39,30.31,30.18,7,-4,7,0.00
2013-4-10,92,74,59,67,60,54,86,64,40,30.22,30.07,7,1,7,0.00
2013-4-11,88,73,60,66,61,55,89,68,41,30.13,29.94,8,1,8,0.00
2013-4-12,81,70,50,72,64,-100,92,83,50,29.97,29.74,32,-2,32,0.00
2013-4-13,80,65,54,63,48,42,91,57,32,30.13,29.87,8,2,8,0.00
2013-4-14,86,66,48,58,49,-100,88,60,27,30.23,30.13,6,0,6,0.00
2013-4-15,73,63,60,59,50,-100,84,67,59,30.34,30.15,8,-43,8,0.00
2013-4-16,82,66,56,66,59,52,93,79,55,30.44,30.32,6,0,6,0.00
2013-4-17,90,70,56,69,60,-100,91,74,49,30.37,30.23,4,-14,4,0.00
2013-4-18,83,69,58,67,60,-100,90,73,53,30.33,30.18,57,-3,57,0.00
2013-4-19,68,18,66,62,-56,-100,85,22,81,30.18,30.07,4,-724,4,0.00
2013-4-20,60,40,32,48,25,-100,93,71,47,30.39,29.94,10,-4,10,0.00
2013-4-21,66,52,41,47,42,36,91,69,46,30.62,30.39,8,2,8,0.00
2013-4-22,61,49,38,47,41,33,86,75,57,30.62,30.37,13,4,13,0.00
2013-4-23,68,55,48,54,48,-100,91,79,59,30.38,30.25,6,-5,6,0.00
2013-4-24,85,63,47,62,53,-100,92,73,47,30.28,30.09,6,0,6,0.00
2013-4-25,72,62,53,57,52,45,86,69,52,30.41,30.13,7,1,7,0.00
2013-4-26,78,60,46,52,47,43,90,66,33,30.54,30.40,6,0,6,0.00
2013-4-27,78,63,51,53,49,46,84,63,36,30.51,30.38,4,0,4,0.00
2013-4-28,66,54,55,54,34,-100,89,63,62,30.41,30.23,0,-106,0,0.00
2013-4-29,70,60,56,66,55,-100,93,88,86,30.24,30.09,0,-28,0,0.00
2013-4-30,65,57,58,60,48,-100,96,86,84,30.28,30.12,57,-67,57,0.00
2013-5-1,61,53,58,58,40,-100,95,82,90,30.45,30.26,0,-117,0,0.00
2013-5-2,64,60,55,59,56,51,95,88,82,30.46,30.36,57,0,57,0.00
2013-5-3,72,58,50,59,51,44,93,77,55,30.39,30.29,0,0,0,0.00
2013-5-4,66,56,50,56,49,-100,89,81,22,30.33,30.20,4,0,4,0.00
2013-5-5,60,51,50,57,39,-100,91,81,82,30.24,30.12,5,-64,5,0.00
2013-5-6,70,52,57,66,32,-100,95,76,84,30.14,29.94,18,-179,18,0.00
2013-5-7,75,63,54,62,57,51,94,82,54,30.08,29.98,3,0,3,0.00
2013-5-8,75,52,51,64,36,-100,95,75,63,30.14,30.04,2,-129,2,0.00
2013-5-9,83,66,55,66,57,-100,95,78,52,30.19,30.10,57,-14,57,0.00
2013-5-10,90,46,57,69,5,-100,91,50,44,30.19,30.07,57,-339,57,0.00
2013-5-11,87,74,67,68,64,60,90,73,50,30.10,29.91,5,0,5,0.00
2013-5-12,78,67,55,64,56,43,92,70,46,30.15,29.91,4,1,4,0.00
2013-5-13,72,59,50,46,43,38,76,57,35,30.30,30.14,5,1,5,0.00
2013-5-14,75,58,43,48,43,38,86,61,31,30.38,30.21,4,0,4,0.00
2013-5-15,91,70,53,67,57,46,80,65,43,30.23,30.01,4,0,4,0.00
2013-5-16,96,75,64,76,62,59,83,65,45,30.10,30.01,4,0,4,0.00
2013-5-17,91,75,62,68,63,57,88,68,41,30.22,30.10,4,0,4,0.00
2013-5-18,76,70,65,72,66,62,92,86,74,30.30,30.19,0,0,0,0.00
2013-5-19,82,70,65,73,66,63,95,89,60,30.29,30.19,2,0,2,0.00
2013-5-20,81,71,67,75,68,65,96,91,76,30.26,30.16,2,0,2,0.00
2013-5-21,82,72,68,76,69,66,96,92,81,30.18,30.08,3,0,3,0.00
2013-5-22,88,74,67,75,69,64,96,86,63,30.17,30.06,0,0,0,0.00
2013-5-23,83,72,68,74,69,66,95,90,73,30.11,29.97,0,0,0,0.00
2013-5-24,73,64,54,66,54,-100,96,75,54,30.30,29.92,6,-10,6,0.00
2013-5-25,76,58,45,51,43,-100,86,63,36,30.39,30.25,6,-10,6,0.00
2013-5-26,79,55,50,57,38,-100,84,63,38,30.40,30.30,3,-86,3,0.00
2013-5-27,85,66,50,60,54,46,90,68,39,30.41,30.29,57,-3,57,0.00
2013-5-28,71,57,59,63,47,-100,87,78,75,30.39,30.32,0,-66,0,0.00
2013-5-29,32,32,32,63,41,32,90,70,50,30.37,30.29,2,0,2,0.00
2013-5-30,76,42,32,67,40,32,91,71,45,30.40,30.30,2,0,3,0.00
2013-5-31,93,72,67,74,59,-100,90,72,49,30.36,30.23,4,-58,4,0.00
2013-6-1,93,78,68,74,67,-100,90,73,50,30.28,30.15,3,-7,3,0.00
2013-6-2,92,78,69,73,68,64,88,72,50,30.20,30.03,3,0,3,0.00
2013-6-3,78,74,69,75,71,67,94,89,77,30.10,29.97,1,0,1,0.00
2013-6-4,80,68,67,67,56,-100,96,79,65,30.24,30.05,57,-49,57,0.00
2013-6-5,87,70,61,67,58,-100,92,72,49,30.28,30.15,0,-31,0,0.00
2013-6-6,76,59,66,72,39,-100,94,73,73,30.19,29.97,0,-159,0,0.00
2013-6-7,81,71,69,79,68,-100,98,94,91,29.99,29.56,4,-14,4,0.00
2013-6-8,86,75,68,77,71,68,97,89,72,30.22,29.95,6,0,6,0.00
2013-6-9,88,76,67,78,72,66,96,86,68,30.30,30.19,0,0,0,0.00
2013-6-10,86,76,71,80,73,70,96,91,77,30.25,30.04,6,0,6,0.00
2013-6-11,89,76,70,75,70,67,96,83,59,30.09,30.01,4,0,4,0.00
2013-6-12,93,78,66,77,71,64,94,81,58,30.10,29.99,3,0,3,0.00
2013-6-13,99,82,70,82,74,66,94,79,51,30.00,29.71,17,0,17,0.00
2013-6-14,82,72,64,67,61,58,91,71,49,30.15,29.83,57,2,57,0.00
2013-6-15,90,72,60,70,63,-100,90,75,51,30.25,30.14,2,0,2,0.00
2013-6-16,92,75,63,72,66,59,87,73,52,30.26,30.13,5,0,5,0.00
2013-6-17,88,77,69,76,70,65,86,78,64,30.18,30.06,2,0,2,0.00
2013-6-18,86,76,71,76,71,67,93,84,72,30.10,29.86,2,0,2,0.00
2013-6-19,80,72,66,71,68,64,95,85,72,30.25,29.99,0,0,0,0.00
2013-6-20,86,73,64,69,64,57,94,75,54,30.38,30.24,0,0,0,0.00
2013-6-21,88,72,58,69,63,54,92,74,52,30.39,30.30,0,0,0,0.00
2013-6-22,79,72,69,73,69,66,96,90,81,30.34,30.22,0,0,0,0.00
2013-6-23,87,76,70,80,73,68,96,90,76,30.34,30.25,0,0,0,0.00
2013-6-24,91,78,72,80,74,70,95,86,68,30.34,30.22,0,0,0,0.00
2013-6-25,93,76,70,80,72,68,94,88,66,30.27,30.14,0,0,0,0.00
2013-6-26,93,77,70,81,72,67,97,87,65,30.17,30.02,0,0,0,0.00
2013-6-27,92,77,68,81,72,51,97,87,64,30.04,29.85,0,-4,0,0.00
2013-6-28,95,80,73,82,74,70,95,85,64,29.90,29.71,57,0,57,0.00
2013-6-29,88,76,69,80,73,-100,96,89,73,29.88,29.73,0,0,0,0.00
2013-6-30,87,77,71,80,74,69,95,90,76,30.02,29.86,57,0,57,0.00
2013-7-1,80,74,71,78,73,70,98,96,92,30.14,29.98,0,0,0,0.00
2013-7-2,80,74,72,78,73,71,99,97,90,30.33,30.13,0,0,0,0.00
2013-7-3,84,76,72,82,75,72,99,97,87,30.39,30.29,0,0,0,0.00
2013-7-4,92,79,72,82,76,72,99,91,70,30.42,30.32,4,0,4,0.00
2013-7-5,94,80,72,82,76,70,97,87,65,30.41,30.29,9,0,9,0.00
2013-7-6,92,79,72,81,74,70,96,86,65,30.40,30.26,2,0,2,0.00
2013-7-7,94,80,70,80,73,-100,95,84,63,30.33,30.19,5,0,5,0.00
2013-7-8,86,77,72,81,74,70,95,91,81,30.31,30.22,5,0,5,0.00
2013-7-9,87,77,71,83,74,70,97,92,81,30.29,30.21,3,0,3,0.00
2013-7-10,90,79,74,82,76,72,97,91,78,30.24,30.08,4,0,4,0.00
2013-7-11,88,77,73,81,74,72,95,91,76,30.13,30.02,5,0,5,0.00
2013-7-12,75,73,71,74,72,70,98,97,96,30.15,29.99,1,0,1,0.00
2013-7-13,85,75,71,82,74,70,99,96,88,30.33,30.14,2,0,2,0.00
2013-7-14,89,78,70,82,75,70,99,91,78,30.43,30.33,4,0,4,0.00
2013-7-15,91,79,70,81,74,68,98,87,68,30.45,30.37,2,0,2,0.00
2013-7-16,96,81,71,83,76,69,96,84,62,30.40,30.30,3,0,3,0.00
2013-7-17,96,83,75,81,77,73,95,82,58,30.35,30.22,3,0,3,0.00
2013-7-18,96,83,74,84,77,72,94,84,64,30.28,30.16,1,0,1,0.00
2013-7-19,94,82,74,82,76,72,95,85,66,30.23,30.11,4,0,4,0.00
2013-7-20,93,81,75,82,76,73,93,84,66,30.17,30.04,3,0,3,0.00
2013-7-21,92,79,72,81,74,70,93,86,71,30.13,30.02,57,0,57,0.00
2013-7-22,92,79,72,80,73,-100,95,85,68,30.09,29.94,3,-3,3,0.00
2013-7-23,94,81,74,80,76,72,94,85,62,29.98,29.84,4,-3,4,0.00
2013-7-24,95,80,72,82,74,70,95,84,64,29.98,29.84,3,0,3,0.00
2013-7-25,82,74,70,74,70,-100,94,88,75,30.15,29.94,5,1,5,0.00
2013-7-26,90,74,64,74,67,-100,94,81,56,30.23,30.14,2,-3,2,0.00
2013-7-27,89,75,66,78,70,63,94,85,66,30.20,30.07,3,0,3,0.00
2013-7-28,89,78,72,80,74,70,95,87,71,30.13,30.04,2,0,2,0.00
2013-7-29,89,78,73,77,73,69,94,85,64,30.28,30.12,3,0,3,0.00
2013-7-30,92,77,67,77,70,63,91,81,60,30.34,30.26,2,0,2,0.00
2013-7-31,84,76,71,78,72,69,94,87,77,30.28,30.14,2,0,2,0.00
2013-8-1,87,77,71,79,73,69,95,89,74,30.15,29.98,4,0,4,0.33
2013-8-2,93,79,69,80,73,-100,96,84,63,30.15,30.02,3,-3,3,0.00
2013-8-3,90,79,72,81,74,-100,94,87,74,30.15,30.02,0,0,0,0.02
2013-8-4,88,76,68,73,68,-100,96,81,58,30.16,30.00,6,-3,6,0.00
2013-8-5,88,73,62,70,65,-100,94,79,54,30.22,30.13,4,0,4,0.00
2013-8-6,85,74,67,77,69,64,92,85,72,30.20,30.13,2,0,2,0.00
2013-8-7,92,77,67,78,71,64,94,82,61,30.24,30.15,5,0,5,0.00
2013-8-8,93,79,70,79,73,68,94,81,60,30.20,30.13,0,0,0,0.00
2013-8-9,96,82,74,81,75,71,94,82,61,30.18,30.10,5,0,5,0.00
2013-8-10,98,81,74,84,75,-100,93,84,61,30.23,30.12,6,0,6,0.14
2013-8-11,94,80,72,83,75,70,97,87,66,30.24,30.12,4,0,4,0.06
2013-8-12,94,81,73,80,75,71,97,83,60,30.18,30.06,4,0,4,0.00
2013-8-13,92,80,72,82,75,70,97,87,68,30.10,29.90,9,0,9,0.82
2013-8-14,76,72,62,74,66,59,94,84,71,30.21,29.93,6,1,6,0.00
2013-8-15,80,67,60,65,61,57,92,82,56,30.28,30.20,5,0,5,0.00
2013-8-16,74,66,60,65,62,57,92,86,73,30.30,30.21,6,0,6,0.00
2013-8-17,74,69,64,73,67,62,97,94,91,30.29,30.22,4,0,4,0.14
2013-8-18,85,76,69,76,71,66,98,87,73,30.33,30.23,3,0,3,0.00
2013-8-19,73,70,67,72,68,65,97,95,92,30.33,30.21,0,0,0,0.28
2013-8-20,80,74,69,76,72,68,98,94,85,30.31,30.23,1,0,1,0.00
2013-8-21,89,68,70,80,54,-100,97,80,72,30.36,30.23,9,-123,9,0.04
2013-8-22,91,74,70,79,65,-100,97,81,61,30.28,30.12,3,-43,3,0.04
2013-8-23,90,76,70,78,72,68,97,86,64,30.18,30.04,5,0,5,0.00
2013-8-24,84,73,65,70,64,62,93,77,54,30.43,30.18,8,2,8,0.00
2013-8-25,81,67,50,65,60,50,94,78,50,30.51,29.53,6,1,6,0.00
2013-8-26,86,68,56,67,58,-100,94,75,52,30.45,30.23,4,-11,4,0.00
2013-8-27,88,44,61,76,-3,-100,92,46,61,30.25,30.08,3,-435,3,0.00
2013-8-28,82,41,75,76,-8,-100,95,48,83,30.11,29.98,0,-470,0,0.02
2013-8-29,87,75,72,77,68,-100,96,86,72,30.14,29.95,7,-27,7,0.02
2013-8-30,89,75,65,75,69,64,96,83,57,30.19,30.07,2,0,2,0.00
2013-8-31,90,67,66,76,48,-100,96,70,62,30.10,30.00,0,-129,0,0.00
2013-9-1,88,76,72,80,73,70,96,91,76,30.03,29.92,0,0,0,0.14
2013-9-2,89,78,70,81,74,70,98,90,73,30.02,29.92,1,0,1,0.00
2013-9-3,76,73,72,74,66,-100,96,89,94,29.96,29.93,0,-26,0,0.00
2013-9-4,50,50,50,76,71,67,97,88,70,30.21,30.06,4,0,4,0.00
2013-9-5,68,51,50,76,69,63,97,83,56,30.21,30.14,3,0,5,0.00
2013-9-6,86,72,64,69,64,-100,92,77,53,30.29,30.19,6,-6,6,0.00
2013-9-7,84,70,59,68,63,57,94,80,57,30.26,30.10,57,0,57,0.00
2013-9-8,89,71,32,75,63,-100,95,79,50,30.12,30.02,4,0,4,0.00
2013-9-9,89,73,64,75,66,-100,95,81,61,30.29,30.11,0,-14,0,0.00
2013-9-10,92,75,66,76,66,-100,95,79,57,30.36,30.28,0,-18,0,0.00
2013-9-11,89,62,67,77,39,-100,94,70,65,30.34,30.20,0,-177,0,0.00
2013-9-12,92,76,50,68,46,32,95,80,50,30.22,29.93,32,0,32,0.02
2013-9-13,86,75,68,32,32,32,96,79,54,30.01,29.87,0,0,0,0.00
2013-9-14,79,66,58,56,36,32,84,71,47,30.27,30.00,0,0,0,0.00
2013-9-15,83,66,53,64,58,50,92,77,51,30.37,30.24,0,0,0,0.00
2013-9-16,87,72,62,75,65,59,95,81,56,30.32,30.15,57,0,57,0.00
2013-9-17,78,66,59,61,57,52,90,73,51,30.44,30.31,57,0,57,0.00
2013-9-18,75,63,51,59,55,48,89,75,54,30.43,30.30,0,0,0,0.00
2013-9-19,81,64,53,63,58,50,93,80,55,30.32,30.21,0,0,0,0.00
2013-9-20,76,67,64,69,63,-100,93,88,77,30.23,30.10,0,-3,0,0.00
2013-9-21,74,69,66,71,67,64,96,93,89,30.10,29.84,0,0,0,0.00
2013-9-22,76,68,62,70,64,59,97,87,68,30.00,29.83,0,0,0,0.00
2013-9-23,74,62,55,59,56,52,92,81,60,30.20,29.99,0,0,0,0.00
2013-9-24,78,63,53,63,57,50,94,83,58,30.23,30.07,0,0,0,0.00
2013-9-25,76,64,53,64,59,51,95,85,65,30.09,29.99,0,0,0,0.00
2013-9-26,78,66,59,63,60,56,95,82,57,30.16,29.99,0,0,0,0.00
2013-9-27,75,63,56,62,57,53,95,82,59,30.31,30.15,0,0,0,0.00
2013-9-28,74,62,54,62,56,52,94,81,64,30.37,30.27,0,0,0,0.00
2013-9-29,75,63,54,62,57,52,94,82,61,30.29,30.14,2,0,2,0.00
2013-10-2,85,68,57,68,61,55,93,80,56,30.25,30.17,0,0,0,0.00
2013-10-3,85,69,59,70,63,56,93,82,59,30.26,30.19,0,0,0,0.00
2013-10-4,86,72,62,71,65,60,94,82,59,30.26,30.17,0,0,0,0.00
2013-10-5,88,73,62,73,66,60,93,81,56,30.23,30.16,0,0,0,0.00
2013-10-6,83,71,64,74,67,62,95,87,75,30.20,30.08,0,0,0,0.00
2013-10-7,77,71,67,73,69,66,97,93,87,30.09,29.98,0,0,0,0.00
2013-10-8,67,59,56,66,54,51,95,85,75,30.30,30.09,0,0,0,0.00
2013-10-9,61,58,56,57,54,52,95,88,84,30.28,30.16,0,0,0,0.00
2013-10-10,59,57,54,58,55,53,97,95,93,30.16,30.03,0,0,0,0.00
2013-10-11,64,61,58,62,60,57,97,94,90,30.09,30.00,0,0,0,0.00
2013-10-12,68,64,61,66,63,60,96,94,90,30.19,30.06,0,0,0,0.00
2013-10-13,68,65,62,66,64,61,97,96,92,30.31,30.18,0,0,0,0.00
2013-10-14,68,63,58,63,61,57,97,93,85,30.35,30.28,0,0,0,0.00
2013-10-15,69,54,54,63,40,-100,96,82,80,30.31,30.17,0,-118,0,0.00
2013-10-16,70,65,62,66,63,61,97,92,83,30.18,30.08,0,0,0,0.00
2013-10-17,76,67,61,69,64,59,96,90,76,30.09,29.96,0,0,0,0.00
2013-10-18,68,63,59,65,57,52,95,81,65,30.16,30.00,0,0,0,0.00
2013-10-19,67,64,61,65,62,58,96,94,89,30.10,29.94,0,0,0,0.00
2013-10-20,66,56,47,61,47,-100,95,78,56,30.25,30.01,0,-21,0,0.00
2013-10-21,65,31,41,52,-12,-100,94,50,50,30.29,30.13,0,-405,0,0.00
2013-10-22,64,56,51,60,51,-100,94,90,86,30.14,29.94,57,-17,57,0.00
2013-10-23,58,56,56,57,56,55,96,95,94,29.94,29.81,0,0,0,0.00
2013-10-24,60,47,32,42,38,-100,85,61,49,30.30,30.07,32,0,32,0.00
2013-10-25,57,47,40,50,35,-100,85,64,42,30.48,30.29,0,-26,0,0.00
2013-10-26,60,45,33,50,35,-100,89,71,46,30.47,30.20,0,-8,0,0.00
2013-10-27,66,19,43,46,-46,-100,87,30,48,30.26,30.17,0,-642,0,0.00
2013-10-28,67,32,43,57,-14,-100,91,48,71,30.38,30.26,0,-419,0,0.00
2013-10-29,72,45,51,60,17,-100,94,61,63,30.45,30.36,0,-254,0,0.00
2013-10-30,71,54,52,63,38,-100,93,76,73,30.43,30.28,0,-118,0,0.00
2013-10-31,76,54,55,64,33,-100,94,68,64,30.32,30.07,0,-179,0,0.00
2013-11-1,75,67,66,69,62,-100,96,90,79,30.07,29.82,0,-14,0,0.00
2013-11-2,71,62,56,65,55,-100,96,80,55,30.03,29.80,0,-7,0,0.00
2013-11-3,63,52,44,51,40,-100,82,61,49,30.49,29.53,32,7,32,0.00
2013-11-4,54,37,32,50,12,-100,86,52,50,30.67,30.49,0,-169,0,0.00
2013-11-5,58,40,40,50,14,-100,88,65,73,30.65,30.54,0,-212,0,0.00
2013-11-6,70,41,48,59,8,-100,95,61,66,30.55,30.24,0,-265,0,0.00
2013-11-7,71,60,47,65,50,-100,95,81,63,30.24,30.02,0,-38,0,0.00
2013-11-8,47,41,38,37,29,-100,84,70,68,30.39,30.22,0,-43,0,0.00
2013-11-9,59,44,47,42,14,-100,80,48,47,30.50,30.31,32,-114,32,0.00
2013-11-10,32,32,32,32,32,32,50,50,50,30.32,30.32,0,0,0,0.00
2013-11-11,32,32,32,32,32,32,50,50,50,30.32,30.32,0,0,0,0.00
2013-11-12,60,34,32,45,12,-100,85,52,50,30.52,30.20,0,-145,0,0.00
2013-11-13,44,34,29,25,20,-100,78,59,42,30.64,30.51,0,-17,0,0.00
2013-11-14,56,38,26,33,27,-100,85,67,39,30.59,30.46,0,-7,0,0.00
2013-11-15,60,26,30,49,10,-100,85,61,51,30.49,30.34,0,-199,0,0.00
2013-11-16,65,53,50,59,46,-100,93,84,81,30.40,30.33,0,-28,0,0.00
2013-11-17,72,42,54,64,9,-100,95,63,72,30.34,30.05,0,-332,0,0.00
2013-11-18,74,48,56,66,15,-100,96,57,51,30.05,29.91,0,-221,0,0.00
2013-11-19,56,49,42,38,33,31,68,54,42,30.44,30.05,32,2,32,0.00
2013-11-20,52,45,37,40,35,29,79,68,56,30.57,30.43,10,2,10,0.00
2013-11-21,64,51,43,52,45,37,87,79,66,30.62,30.49,8,2,8,0.00
2013-11-22,73,59,50,63,52,-100,93,83,70,30.51,30.21,5,-31,5,0.00
2013-11-23,62,38,32,60,-3,-100,94,55,49,30.28,30.14,7,-346,7,0.00
2013-11-24,43,31,25,27,7,-100,66,46,33,30.66,30.28,11,-63,11,0.00
2013-11-25,42,31,20,23,18,13,78,60,37,30.72,30.49,5,0,5,0.00
2013-11-26,65,45,33,64,37,-100,97,77,63,30.51,29.70,58,-13,58,0.00
2013-11-27,65,44,31,64,37,-100,97,86,75,30.27,29.60,10,-60,10,0.00
2013-11-28,44,26,26,32,-1,-100,87,54,50,30.62,30.27,7,-208,7,0.00
2013-11-29,49,20,25,33,-22,-100,91,50,50,30.75,30.59,8,-360,8,0.00
2013-11-30,50,28,29,50,0,-100,86,60,50,30.75,30.49,7,-223,7,0.00
2013-12-1,59,25,31,44,-24,-100,91,40,50,30.48,30.15,1,-425,1,0.00
2013-12-2,59,35,35,48,3,-100,91,56,54,30.15,29.95,3,-245,3,0.00
2013-12-3,60,44,32,48,36,-100,91,78,65,30.14,29.99,6,-42,6,0.00
2013-12-4,64,56,49,59,52,-100,92,87,81,30.22,30.11,0,0,0,0.00
2013-12-5,68,48,52,64,23,-100,96,72,50,30.28,30.18,54,-217,54,0.00
2013-12-6,78,54,62,68,27,-100,96,63,69,30.22,30.10,10,-232,10,0.00
2013-12-7,67,42,42,64,21,-100,93,72,75,30.58,30.12,61,-154,61,0.00
2013-12-8,42,36,34,36,31,-100,93,85,73,30.58,30.41,11,-12,11,0.00
2013-12-9,47,34,35,46,14,-100,95,77,93,30.41,30.18,0,-176,0,0.00
2013-12-10,48,36,31,47,17,-100,96,77,85,30.45,30.03,7,-166,7,0.00
2013-12-11,49,36,27,36,30,25,94,83,56,30.58,30.41,2,0,2,0.00
2013-12-12,45,35,27,30,26,-100,92,72,45,30.54,30.38,7,0,7,0.00
2013-12-13,50,35,24,31,26,21,89,74,45,30.52,30.39,3,0,3,0.00
2013-12-14,47,40,35,42,35,-100,93,84,68,30.43,29.89,4,-14,4,0.00
2013-12-15,53,44,35,46,39,30,94,82,63,30.19,29.82,8,0,8,0.00
2013-12-16,54,39,30,40,33,28,91,79,56,30.31,30.18,4,-3,4,0.00
2013-12-17,60,45,32,45,38,30,93,77,54,30.25,30.00,57,-3,57,0.00
2013-12-18,49,40,30,38,28,24,81,65,43,30.42,30.15,8,1,8,0.00
2013-12-19,60,42,27,38,31,24,88,68,40,30.45,30.35,9,0,9,0.00
2013-12-20,65,51,39,56,45,32,86,78,69,30.38,30.24,6,0,6,0.00
2013-12-21,73,59,47,64,54,44,94,85,71,30.29,30.18,9,0,9,0.00
2013-12-22,80,70,65,70,65,61,94,85,66,30.23,30.16,10,1,10,0.00
2013-12-23,71,62,49,70,60,47,97,94,87,30.26,30.11,8,1,8,0.00
2013-12-24,49,42,31,47,34,20,94,74,60,30.57,30.23,11,4,11,0.00
2013-12-25,39,30,25,22,19,16,83,64,50,30.67,30.50,8,2,8,0.00
2013-12-26,49,35,25,38,30,21,88,80,63,30.52,30.36,3,0,3,0.00
2013-12-27,51,37,29,35,28,23,88,73,49,30.58,30.47,5,0,5,0.00
2013-12-28,60,40,26,40,32,23,90,75,44,30.53,30.28,6,0,6,0.00
2013-12-29,65,47,45,64,31,-100,97,80,81,30.29,29.76,9,-115,9,0.00
2013-12-30,57,37,38,50,15,-100,96,72,66,30.27,30.04,3,-174,3,0.00
2013-12-31,52,34,33,40,7,-100,89,63,53,30.47,30.23,7,-180,7,0.00
2014-1-1,52,40,30,38,33,28,91,77,52,30.56,30.27,7,0,7,0.00
2014-1-2,48,44,40,46,40,-100,93,87,82,30.28,29.67,9,-3,9,0.00